createdAt,value
2023-03-02T00:01:36.608Z,993
2023-03-02T00:06:55.789Z,993
2023-03-02T00:12:15.427Z,993
2023-03-02T00:17:43.829Z,993
2023-03-02T00:22:54.339Z,993
2023-03-02T00:28:13.864Z,993
2023-03-02T00:33:33.453Z,993
2023-03-02T00:38:52.671Z,992.9
2023-03-02T00:44:11.962Z,992.9
2023-03-02T00:49:30.830Z,992.8
2023-03-02T00:54:49.711Z,992.8
2023-03-02T01:00:08.207Z,992.7
2023-03-02T01:05:37.824Z,992.6
2023-03-02T01:10:47.036Z,992.6
2023-03-02T01:16:06.261Z,992.5
2023-03-02T01:21:25.534Z,992.5
2023-03-02T01:26:44.649Z,992.4
2023-03-02T01:32:03.760Z,992.3
2023-03-02T01:37:22.869Z,992.2
2023-03-02T01:42:42.542Z,992.1
2023-03-02T01:48:01.659Z,992
2023-03-02T01:53:20.999Z,992.1
2023-03-02T01:58:39.987Z,992
2023-03-02T02:03:59.528Z,991.9
2023-03-02T02:09:19.092Z,992
2023-03-02T02:14:38.854Z,992
2023-03-02T02:19:57.830Z,992
2023-03-02T02:25:16.901Z,991.9
2023-03-02T02:30:36.224Z,991.9
2023-03-02T02:35:55.323Z,991.9
2023-03-02T02:41:15.068Z,991.8
2023-03-02T02:46:34.507Z,991.7
2023-03-02T02:51:53.903Z,991.7
2023-03-02T02:57:13.362Z,991.7
2023-03-02T03:02:32.923Z,991.8
2023-03-02T03:07:52.242Z,991.8
2023-03-02T03:13:11.172Z,991.9
2023-03-02T03:18:30.345Z,991.8
2023-03-02T03:23:49.504Z,991.8
2023-03-02T03:29:08.445Z,991.9
2023-03-02T03:34:27.346Z,991.8
2023-03-02T03:39:46.710Z,991.8
2023-03-02T03:45:05.822Z,991.9
2023-03-02T03:50:24.726Z,991.9
2023-03-02T03:55:44.125Z,991.8
2023-03-02T04:01:03.197Z,991.9
2023-03-02T04:06:21.892Z,991.9
2023-03-02T04:11:41.451Z,991.9
2023-03-02T04:17:00.357Z,991.9
2023-03-02T04:22:19.890Z,991.8
2023-03-02T04:27:39.766Z,991.9
2023-03-02T04:32:59.493Z,991.8
2023-03-02T04:38:18.956Z,991.8
2023-03-02T04:43:38.813Z,991.8
2023-03-02T04:48:57.758Z,991.8
2023-03-02T04:54:16.690Z,991.8
2023-03-02T04:59:35.913Z,991.8
2023-03-02T05:04:55.349Z,991.7
2023-03-02T05:10:14.126Z,991.7
2023-03-02T05:15:33.921Z,991.7
2023-03-02T05:20:53.446Z,991.7
2023-03-02T05:26:12.578Z,991.7
2023-03-02T05:31:31.718Z,991.7
2023-03-02T05:36:51.352Z,991.7
2023-03-02T05:37:16.193Z,991.7
2023-03-02T05:42:35.882Z,991.7
2023-03-02T05:47:55.621Z,991.7
2023-03-02T05:53:15.160Z,991.8
2023-03-02T05:58:34.562Z,991.8
2023-03-02T06:03:54.257Z,991.9
2023-03-02T06:09:13.928Z,991.8
2023-03-02T06:14:33.111Z,991.8
2023-03-02T06:19:52.190Z,991.9
2023-03-02T06:25:11.662Z,991.9
2023-03-02T06:30:30.918Z,991.9
2023-03-02T06:35:49.744Z,991.9
2023-03-02T06:41:08.601Z,991.9
2023-03-02T06:46:27.733Z,992
2023-03-02T06:51:47.253Z,992
2023-03-02T06:57:07.050Z,992
2023-03-02T07:02:27.052Z,992
2023-03-02T07:07:46.667Z,992
2023-03-02T07:13:08.061Z,992
2023-03-02T07:18:24.973Z,992
2023-03-02T07:23:44.015Z,992
2023-03-02T07:29:03.520Z,991.9
2023-03-02T07:34:22.624Z,991.9
2023-03-02T07:39:41.635Z,991.8
2023-03-02T07:45:00.998Z,991.8
2023-03-02T07:50:20.409Z,991.8
2023-03-02T07:55:39.542Z,991.7
2023-03-02T08:00:58.375Z,991.7
2023-03-02T08:06:17.129Z,991.7
2023-03-02T08:11:35.952Z,991.7
2023-03-02T08:16:54.826Z,991.6
2023-03-02T08:22:14.117Z,991.6
2023-03-02T08:27:32.944Z,991.6
2023-03-02T08:32:52.238Z,991.6
2023-03-02T08:38:10.958Z,991.6
2023-03-02T08:43:30.184Z,991.5
2023-03-02T08:48:49.935Z,991.5
2023-03-02T08:54:08.906Z,991.5
2023-03-02T08:59:28.393Z,991.4
2023-03-02T09:04:47.743Z,991.4
2023-03-02T09:10:06.524Z,991.3
2023-03-02T09:15:26.156Z,991.3
2023-03-02T09:20:44.987Z,991.2
2023-03-02T09:26:03.857Z,991.3
2023-03-02T09:31:22.808Z,991.3
2023-03-02T09:36:41.640Z,991.3
2023-03-02T09:42:00.498Z,991.3
2023-03-02T09:47:30.022Z,991.3
2023-03-02T09:52:39.081Z,991.2
2023-03-02T09:57:58.020Z,991.1
2023-03-02T10:03:17.843Z,991.2
2023-03-02T10:08:36.273Z,991.1
2023-03-02T10:13:55.134Z,991.1
2023-03-02T10:19:14.217Z,991.2
2023-03-02T10:24:33.887Z,991.1
2023-03-02T10:29:53.003Z,991
2023-03-02T10:35:12.014Z,991
2023-03-02T10:40:31.156Z,991
2023-03-02T10:45:50.741Z,991
2023-03-02T10:51:09.572Z,990.9
2023-03-02T10:56:28.908Z,990.8
2023-03-02T11:01:48.372Z,990.8
2023-03-02T11:07:07.562Z,990.8
2023-03-02T11:12:26.401Z,990.8
2023-03-02T11:17:46.057Z,990.7
2023-03-02T11:23:05.599Z,990.7
2023-03-02T11:28:24.884Z,990.7
2023-03-02T11:33:44.334Z,990.6
2023-03-02T11:39:03.338Z,990.6
2023-03-02T11:44:22.256Z,990.5
2023-03-02T11:49:40.953Z,990.5
2023-03-02T11:55:00.665Z,990.4
2023-03-02T12:00:19.407Z,990.4
2023-03-02T12:05:38.726Z,990.3
2023-03-02T12:10:58.093Z,990.3
2023-03-02T12:16:17.548Z,990.2
2023-03-02T12:21:36.436Z,990.3
2023-03-02T12:26:55.705Z,990.2
2023-03-02T12:33:29.861Z,990.2
2023-03-02T12:37:35.398Z,990.1
2023-03-02T12:42:55.002Z,990.1
2023-03-02T12:48:14.679Z,990.1
2023-03-02T12:53:34.176Z,989.9
2023-03-02T12:58:53.667Z,989.9
2023-03-02T13:04:13.307Z,989.8
2023-03-02T13:09:32.057Z,989.7
2023-03-02T13:14:50.700Z,989.8
2023-03-02T13:20:09.666Z,989.8
2023-03-02T13:25:28.817Z,989.6
2023-03-02T13:30:48.497Z,989.6
2023-03-02T13:36:06.616Z,989.6
2023-03-02T13:41:25.803Z,989.4
2023-03-02T13:46:45.490Z,989.5
2023-03-02T13:52:07.120Z,989.4
2023-03-02T13:57:24.402Z,989.5
2023-03-02T14:02:43.547Z,989.4
2023-03-02T14:08:03.212Z,989.3
2023-03-02T14:13:22.459Z,989.3
2023-03-02T14:18:41.323Z,989.3
2023-03-02T14:24:00.810Z,989.2
2023-03-02T14:29:19.737Z,989.2
2023-03-02T14:34:39.247Z,989.2
2023-03-02T14:39:58.012Z,989.2
2023-03-02T14:45:16.835Z,989.1
2023-03-02T14:50:35.861Z,989.1
2023-03-02T14:55:55.108Z,989
2023-03-02T15:01:14.010Z,989
2023-03-02T15:06:33.513Z,989
2023-03-02T15:11:52.026Z,989
2023-03-02T15:17:10.815Z,989
2023-03-02T15:22:30.603Z,989
2023-03-02T15:27:49.310Z,989.1
2023-03-02T15:33:08.196Z,989
2023-03-02T15:38:27.368Z,989
2023-03-02T15:43:46.324Z,989.1
2023-03-02T15:49:05.287Z,989.1
2023-03-02T15:54:24.005Z,989.1
2023-03-02T15:59:43.565Z,989.1
2023-03-02T16:05:03.052Z,989.1
2023-03-02T16:10:22.611Z,989.2
2023-03-02T16:15:42.125Z,989.2
2023-03-02T16:21:01.507Z,989.2
2023-03-02T16:26:20.286Z,989.3
2023-03-02T16:31:39.274Z,989.3
2023-03-02T16:36:58.543Z,989.3
2023-03-02T16:42:17.415Z,989.4
2023-03-02T16:47:36.714Z,989.5
2023-03-02T16:52:56.278Z,989.5
2023-03-02T16:58:15.489Z,989.5
2023-03-02T17:03:34.949Z,989.6
2023-03-02T17:08:54.189Z,989.6
2023-03-02T17:14:13.399Z,989.7
2023-03-02T17:19:32.052Z,989.7
2023-03-02T17:24:50.796Z,989.7
2023-03-02T17:30:10.503Z,989.8
2023-03-02T17:35:29.728Z,989.9
2023-03-02T17:40:49.405Z,990
2023-03-02T17:46:09.074Z,990.1
2023-03-02T17:51:27.935Z,990.2
2023-03-02T17:56:47.330Z,990.2
2023-03-02T18:02:06.269Z,990.2
2023-03-02T18:07:25.398Z,990.3
2023-03-02T18:12:44.507Z,990.3
2023-03-02T18:18:03.354Z,990.5
2023-03-02T18:23:22.631Z,990.6
2023-03-02T18:28:42.165Z,990.5
2023-03-02T18:34:01.355Z,990.6
2023-03-02T18:39:20.200Z,990.6
2023-03-02T18:44:39.415Z,990.6
2023-03-02T18:49:59.020Z,990.7
2023-03-02T18:55:18.142Z,990.8
2023-03-02T19:00:37.550Z,990.8
2023-03-02T19:05:58.177Z,990.9
2023-03-02T19:11:15.914Z,991
2023-03-02T19:16:35.055Z,991.1
2023-03-02T19:21:53.973Z,991.1
2023-03-02T19:27:13.648Z,991.1
2023-03-02T19:32:32.562Z,991.2
2023-03-02T19:37:52.171Z,991.3
2023-03-02T19:43:11.365Z,991.3
2023-03-02T19:48:30.533Z,991.3
2023-03-02T19:53:49.595Z,991.3
2023-03-02T19:59:08.551Z,991.4
2023-03-02T20:04:28.152Z,991.5
2023-03-02T20:09:47.849Z,991.5
2023-03-02T20:15:06.723Z,991.6
2023-03-02T20:20:26.272Z,991.6
2023-03-02T20:25:47.907Z,991.6
2023-03-02T20:31:05.108Z,991.6
2023-03-02T20:36:24.557Z,991.7
2023-03-02T20:41:43.638Z,991.7
2023-03-02T20:47:02.801Z,991.7
2023-03-02T20:52:21.618Z,991.8
2023-03-02T20:57:41.131Z,991.8
2023-03-02T21:03:00.476Z,991.8
2023-03-02T21:08:19.385Z,991.9
2023-03-02T21:13:38.740Z,991.9
2023-03-02T21:18:57.764Z,991.9
2023-03-02T21:24:17.270Z,991.9
2023-03-02T21:29:36.911Z,991.8
2023-03-02T21:34:55.941Z,991.9
2023-03-02T21:40:14.775Z,991.8
2023-03-02T21:45:33.917Z,991.8
2023-03-02T21:50:53.028Z,991.9
2023-03-02T21:56:12.408Z,991.9
2023-03-02T22:01:31.570Z,991.9
2023-03-02T22:06:50.637Z,992
2023-03-02T22:12:09.462Z,991.9
2023-03-02T22:17:28.404Z,992
2023-03-02T22:22:48.664Z,992
2023-03-02T22:28:08.282Z,992.1
2023-03-02T22:33:27.794Z,992.1
2023-03-02T22:38:46.634Z,992.1
2023-03-02T22:44:05.978Z,992
2023-03-02T22:49:25.016Z,992.1
2023-03-02T22:54:44.790Z,992.1
2023-03-02T23:00:03.997Z,992.1
2023-03-02T23:05:23.729Z,992.1
2023-03-02T23:10:42.498Z,992.1
2023-03-02T23:16:01.504Z,992.2
2023-03-02T23:21:20.654Z,992.2
2023-03-02T23:21:46.840Z,992.2
2023-03-02T23:28:45.438Z,992.2
2023-03-02T23:37:45.258Z,992.1
2023-03-02T23:48:23.373Z,992.2
2023-03-02T23:53:42.975Z,992.2
2023-03-02T23:59:02.415Z,992.2
